KDUC/DUC METAR and TAF weather

Enter ICAO airport designator
Station Type Date Time Source
KDUC METAR 2019/08/22 02:35 UTC NOAA

KDUC 220235Z AUTO 16011KT 10SM CLR 31/19 A2992 RMK AO2 T03120194


Station Type Date Time Source
KDUC Decoded METAR 2019/08/22 02:35 UTC NOAA

Station name not available
Aug 21, 2019 - 10:35 PM EDT / 2019.08.22 0235 UTC
Wind: from the SSE (160 degrees) at 13 MPH (11 KT):0
Visibility: 10 mile(s):0
Sky conditions: clear
Temperature: 88.2 F (31.2 C)
Dew Point: 66.9 F (19.4 C)
Relative Humidity: 49%
Pressure (altimeter): 29.92 in. Hg (1013 hPa)
ob: KDUC 220235Z AUTO 16011KT 10SM CLR 31/19 A2992 RMK AO2 T03120194
cycle: 2

Station Type Date Time Source
KDUC TAF UTC NOAA

Error!

Example: see airport list